Time;durP1;ratioP1;P1;durP2;ratioP2;P2;SDS_P1;SDS_P2;PMS_P1;PMS_P2;Temp;Humidity;BMP_temperature;BMP_pressure;BME280_temperature;BME280_humidity;BME280_pressure;Samples;Min_cycle;Max_cycle;Signal;HPM_P1;HPM_P2
2023/09/24 00:01:00;;;;;;;3.47;2.40;;;;;;;8.25;100.00;98939.34;2609342;28;20049;-87
2023/09/24 00:02:37;;;;;;;9.05;2.72;;;;;;;8.30;100.00;98944.50;2609676;28;20056;-87
2023/09/24 00:03:53;;;;;;;4.30;2.50;;;;;;;8.31;100.00;98941.00;2609390;28;20048;-87
2023/09/24 00:05:09;;;;;;;5.47;2.60;;;;;;;8.21;100.00;98942.84;2609496;28;20488;-87
2023/09/24 00:06:25;;;;;;;2.97;2.42;;;;;;;8.14;100.00;98943.81;2609648;28;20083;-87
2023/09/24 00:07:40;;;;;;;4.35;2.70;;;;;;;8.04;100.00;98938.66;2609508;28;20041;-87
2023/09/24 00:08:56;;;;;;;5.55;2.83;;;;;;;7.99;100.00;98942.19;2609310;28;20052;-87
2023/09/24 00:10:11;;;;;;;5.00;3.30;;;;;;;7.95;100.00;98943.13;2609484;28;20056;-88
2023/09/24 00:11:27;;;;;;;6.78;3.50;;;;;;;7.91;100.00;98948.38;2609535;28;20464;-87
2023/09/24 00:12:42;;;;;;;4.78;3.25;;;;;;;7.94;100.00;98947.44;2609530;28;21044;-87
2023/09/24 00:13:58;;;;;;;4.45;2.88;;;;;;;8.01;100.00;98949.13;2609302;28;20049;-87
2023/09/24 00:15:15;;;;;;;5.70;3.50;;;;;;;8.04;100.00;98956.94;2609235;28;20072;-87
2023/09/24 00:16:31;;;;;;;4.45;2.90;;;;;;;8.04;100.00;98956.94;2609420;28;20045;-87
2023/09/24 00:17:46;;;;;;;6.97;3.45;;;;;;;8.04;100.00;98956.09;2609464;28;20475;-87
2023/09/24 00:19:03;;;;;;;4.40;3.25;;;;;;;8.06;100.00;98954.31;2609184;28;20041;-87
2023/09/24 00:20:19;;;;;;;4.13;2.60;;;;;;;8.01;100.00;98951.75;2609452;28;20558;-87
2023/09/24 00:21:34;;;;;;;4.18;2.70;;;;;;;7.93;100.00;98947.47;2609328;28;20118;-87
2023/09/24 00:22:50;;;;;;;5.85;2.92;;;;;;;7.91;100.00;98950.97;2609384;28;20052;-87
2023/09/24 00:24:07;;;;;;;4.28;2.33;;;;;;;7.89;100.00;98944.03;2609223;28;20049;-87
2023/09/24 00:25:23;;;;;;;4.90;2.78;;;;;;;7.80;100.00;98952.81;2608985;28;20167;-87
2023/09/24 00:26:39;;;;;;;4.30;2.50;;;;;;;7.85;100.00;98957.97;2609519;28;20080;-87
2023/09/24 00:27:57;;;;;;;3.85;2.65;;;;;;;7.84;100.00;98945.81;2609229;28;20041;-87
2023/09/24 00:29:13;;;;;;;5.05;2.83;;;;;;;7.91;100.00;98950.09;2609384;28;20045;-87
2023/09/24 00:30:29;;;;;;;6.47;2.92;;;;;;;7.87;100.00;98945.78;2609202;28;20552;-87
2023/09/24 00:31:44;;;;;;;4.82;2.78;;;;;;;7.84;100.00;98946.69;2609210;28;20060;-87
2023/09/24 00:33:00;;;;;;;4.70;3.25;;;;;;;7.85;100.00;98948.41;2609120;28;20552;-87
2023/09/24 00:34:16;;;;;;;6.13;3.40;;;;;;;7.86;100.00;98949.28;2597590;28;20060;-87
2023/09/24 00:35:32;;;;;;;5.20;3.17;;;;;;;7.90;100.00;98944.03;2602233;28;20103;-87
2023/09/24 00:36:50;;;;;;;6.53;3.03;;;;;;;7.82;100.00;98944.94;2609224;28;20048;-87
2023/09/24 00:38:07;;;;;;;3.50;2.65;;;;;;;7.86;100.00;98946.69;2609206;28;20048;-87
2023/09/24 00:39:23;;;;;;;3.70;2.70;;;;;;;7.92;100.00;98951.81;2609050;28;20041;-87
2023/09/24 00:40:38;;;;;;;4.82;2.80;;;;;;;7.93;100.00;98947.47;2597620;28;20120;-87
2023/09/24 00:41:55;;;;;;;4.85;2.40;;;;;;;7.96;100.00;98950.06;2602409;28;20083;-87
2023/09/24 00:43:30;;;;;;;3.67;2.40;;;;;;;7.92;100.00;98951.81;2609020;28;20528;-87
2023/09/24 00:44:45;;;;;;;3.05;2.30;;;;;;;7.89;100.00;98957.06;2609262;28;20432;-88
2023/09/24 00:46:04;;;;;;;3.13;2.30;;;;;;;7.82;100.00;98958.88;2597638;28;20128;-88
2023/09/24 00:47:20;;;;;;;3.35;2.17;;;;;;;7.84;100.00;98957.09;2602316;28;20041;-87
2023/09/24 00:48:36;;;;;;;4.00;2.00;;;;;;;7.85;100.00;98958.84;2609068;28;20045;-87
2023/09/24 00:49:54;;;;;;;4.28;2.53;;;;;;;7.89;100.00;98951.84;2609046;28;20554;-87
2023/09/24 00:51:19;;;;;;;3.90;2.58;;;;;;;7.72;100.00;98952.00;2608925;28;20116;-87
2023/09/24 00:52:35;;;;;;;4.10;2.60;;;;;;;7.65;100.00;98958.16;2608408;28;20413;-87
2023/09/24 00:53:52;;;;;;;3.97;2.55;;;;;;;7.60;100.00;98958.16;2608879;28;20045;-87
2023/09/24 00:55:08;;;;;;;5.25;2.65;;;;;;;7.55;100.00;98959.97;2609011;28;20202;-87
2023/09/24 00:56:24;;;;;;;4.60;2.58;;;;;;;7.56;100.00;98959.09;2609212;28;20118;-87
2023/09/24 00:57:41;;;;;;;5.55;2.42;;;;;;;7.56;100.00;98964.28;2608838;28;20510;-87
2023/09/24 00:58:57;;;;;;;3.53;2.60;;;;;;;7.55;100.00;98963.41;2609095;28;20139;-87
2023/09/24 01:00:16;;;;;;;3.35;2.40;;;;;;;7.48;100.00;98966.94;2608815;28;20120;-87
2023/09/24 01:01:31;;;;;;;7.07;2.83;;;;;;;7.41;100.00;98966.13;2609088;28;20073;-87
2023/09/24 01:02:47;;;;;;;5.90;3.20;;;;;;;7.40;100.00;98968.72;2608847;28;20432;-87
2023/09/24 01:04:08;;;;;;;4.13;2.70;;;;;;;7.32;100.00;98967.03;2609000;28;20080;-87
2023/09/24 01:05:23;;;;;;;3.88;2.67;;;;;;;7.31;100.00;98970.50;2609119;28;20167;-87
2023/09/24 01:06:39;;;;;;;4.82;2.70;;;;;;;7.32;100.00;98969.63;2608883;28;20064;-87
2023/09/24 01:07:54;;;;;;;3.38;2.50;;;;;;;7.33;100.00;98979.22;2608777;28;20106;-87
2023/09/24 01:09:12;;;;;;;4.72;2.72;;;;;;;7.38;100.00;98978.31;2608888;28;20045;-87
2023/09/24 01:10:27;;;;;;;4.28;2.65;;;;;;;7.39;100.00;98969.59;2608989;28;20049;-87
2023/09/24 01:11:43;;;;;;;5.00;2.25;;;;;;;7.40;100.00;98979.16;2608910;28;20036;-87
2023/09/24 01:12:59;;;;;;;5.60;2.92;;;;;;;7.44;100.00;98984.34;2608822;28;20040;-87
2023/09/24 01:14:14;;;;;;;3.63;2.72;;;;;;;7.55;100.00;98988.63;2608936;28;20049;-87
2023/09/24 01:15:31;;;;;;;3.78;2.63;;;;;;;7.56;100.00;98991.19;2609021;28;20057;-88
2023/09/24 01:16:46;;;;;;;3.33;2.35;;;;;;;7.49;100.00;98987.78;2608841;28;20053;-87
2023/09/24 01:18:05;;;;;;;2.92;2.30;;;;;;;7.54;100.00;98984.25;2608895;28;20049;-87
2023/09/24 01:19:23;;;;;;;4.65;2.42;;;;;;;7.49;100.00;98984.31;2608821;28;20044;-87
2023/09/24 01:20:41;;;;;;;4.00;2.15;;;;;;;7.45;100.00;98991.28;2608793;28;20587;-87
2023/09/24 01:22:01;;;;;;;4.00;2.45;;;;;;;7.40;100.00;98992.19;2608734;28;20496;-87
2023/09/24 01:23:16;;;;;;;3.38;2.03;;;;;;;7.36;100.00;98993.94;2608723;28;20091;-87
2023/09/24 01:24:32;;;;;;;2.47;2.15;;;;;;;7.37;100.00;98989.59;2608931;28;20451;-87
2023/09/24 01:25:47;;;;;;;3.63;2.22;;;;;;;7.39;100.00;98993.91;2609000;28;20593;-87
2023/09/24 01:27:03;;;;;;;5.72;2.28;;;;;;;7.41;100.00;99002.59;2608723;28;20041;-87
2023/09/24 01:28:18;;;;;;;2.42;1.95;;;;;;;7.26;100.00;98998.34;2608721;28;20053;-87
2023/09/24 01:29:35;;;;;;;3.22;2.53;;;;;;;7.16;100.00;99001.84;2608883;28;20056;-87
2023/09/24 01:30:51;;;;;;;3.58;2.25;;;;;;;7.13;100.00;99001.88;2608685;28;20148;-87
2023/09/24 01:32:08;;;;;;;3.10;2.30;;;;;;;7.08;100.00;98999.28;2597384;28;20057;-87
2023/09/24 01:33:24;;;;;;;3.78;2.20;;;;;;;7.15;100.00;99001.00;2601665;28;20044;-87
2023/09/24 01:34:39;;;;;;;4.45;2.30;;;;;;;7.23;100.00;99000.97;2608784;28;20053;-87
2023/09/24 01:35:55;;;;;;;5.00;2.55;;;;;;;7.30;100.00;99009.59;2608738;28;20056;-87
2023/09/24 01:37:11;;;;;;;6.13;2.25;;;;;;;7.28;100.00;99012.22;2608737;28;20082;-87
2023/09/24 01:38:26;;;;;;;4.32;2.45;;;;;;;7.30;100.00;99009.59;2608835;28;20480;-87
2023/09/24 01:39:43;;;;;;;3.83;2.47;;;;;;;7.30;100.00;99014.81;2608776;28;20467;-87
2023/09/24 01:40:59;;;;;;;3.90;2.35;;;;;;;7.25;100.00;99012.22;2597167;28;20104;-87
2023/09/24 01:42:15;;;;;;;3.50;2.42;;;;;;;7.30;100.00;99014.81;2601770;28;20076;-87
2023/09/24 01:43:31;;;;;;;5.22;2.33;;;;;;;7.31;100.00;99016.53;2608761;28;20080;-87
2023/09/24 01:44:47;;;;;;;3.33;2.20;;;;;;;7.35;100.00;99016.53;2608771;28;20045;-87
2023/09/24 01:46:06;;;;;;;3.03;2.35;;;;;;;7.41;100.00;99015.63;2608673;28;20045;-87
2023/09/24 01:47:22;;;;;;;2.72;2.08;;;;;;;7.46;100.00;99015.56;2608301;28;20106;-87
2023/09/24 01:48:37;;;;;;;3.88;2.38;;;;;;;7.37;100.00;99016.50;2607944;28;20107;-87
2023/09/24 01:49:54;;;;;;;3.78;2.13;;;;;;;7.35;100.00;99019.13;2608668;28;20131;-87
2023/09/24 01:51:10;;;;;;;4.05;2.22;;;;;;;7.33;100.00;99026.09;2608598;28;20047;-88
2023/09/24 01:52:26;;;;;;;3.83;2.28;;;;;;;7.29;100.00;99031.31;2608819;28;20051;-88
2023/09/24 01:53:42;;;;;;;3.22;2.45;;;;;;;7.29;100.00;99036.53;2608355;28;20049;-87
2023/09/24 01:54:58;;;;;;;3.83;2.40;;;;;;;7.24;100.00;99039.16;2608738;28;20132;-87
2023/09/24 01:56:17;;;;;;;3.05;2.22;;;;;;;7.21;100.00;99037.41;2608914;28;20084;-87
2023/09/24 01:57:33;;;;;;;3.53;2.40;;;;;;;7.14;100.00;99040.94;2608416;28;20094;-87
2023/09/24 01:58:51;;;;;;;2.70;2.45;;;;;;;7.09;100.00;99050.50;2608550;28;20084;-87
2023/09/24 02:00:18;;;;;;;3.08;2.20;;;;;;;6.96;100.00;99049.69;2608838;28;20481;-88
2023/09/24 02:01:35;;;;;;;3.92;2.70;;;;;;;6.99;100.00;99054.88;2608579;28;20142;-88
2023/09/24 02:02:51;;;;;;;4.60;2.90;;;;;;;7.07;100.00;99054.84;2597171;28;20049;-87
2023/09/24 02:04:07;;;;;;;4.72;2.47;;;;;;;6.98;100.00;99054.88;2603354;28;20049;-87
2023/09/24 02:05:23;;;;;;;4.68;2.85;;;;;;;6.92;100.00;99051.44;2610929;28;20670;-87
2023/09/24 02:06:38;;;;;;;5.22;2.85;;;;;;;6.87;100.00;99057.50;2610854;28;20045;-87
2023/09/24 02:07:54;;;;;;;2.83;2.53;;;;;;;6.84;100.00;99049.72;2610807;28;20041;-87
2023/09/24 02:09:13;;;;;;;5.22;2.70;;;;;;;6.79;100.00;99054.94;2599191;28;20037;-87
2023/09/24 02:10:29;;;;;;;2.92;2.30;;;;;;;6.73;100.00;99058.41;2604450;28;20128;-87
2023/09/24 02:11:45;;;;;;;5.03;2.90;;;;;;;6.73;100.00;99053.22;2610652;28;20916;-87
2023/09/24 02:13:01;;;;;;;5.60;2.67;;;;;;;6.69;100.00;99059.31;2610726;28;20056;-87
2023/09/24 02:14:16;;;;;;;5.20;3.28;;;;;;;6.68;100.00;99054.09;2610572;28;20408;-87
2023/09/24 02:15:33;;;;;;;3.58;2.40;;;;;;;6.65;100.00;99057.59;2610808;28;20068;-87
2023/09/24 02:16:50;;;;;;;2.72;1.98;;;;;;;6.65;100.00;99060.19;2610522;28;20076;-87
2023/09/24 02:18:06;;;;;;;3.72;2.50;;;;;;;6.69;100.00;99066.22;2599034;28;20077;-87
2023/09/24 02:19:24;;;;;;;2.40;2.13;;;;;;;6.64;100.00;99066.25;2603820;28;20048;-87
2023/09/24 02:20:41;;;;;;;3.47;2.33;;;;;;;6.67;100.00;99067.97;2610836;28;20127;-87
2023/09/24 02:21:57;;;;;;;3.47;2.20;;;;;;;6.73;100.00;99071.44;2610411;28;20059;-88
2023/09/24 02:23:13;;;;;;;3.90;1.90;;;;;;;6.73;100.00;99067.97;2610533;28;20068;-87
2023/09/24 02:24:28;;;;;;;3.58;2.13;;;;;;;6.79;100.00;99070.53;2610660;28;20060;-87
2023/09/24 02:25:48;;;;;;;2.67;1.70;;;;;;;6.78;100.00;99079.22;2610594;28;20044;-87
2023/09/24 02:27:04;;;;;;;3.00;1.95;;;;;;;6.82;100.00;99078.34;2610650;28;20484;-88
2023/09/24 02:28:19;;;;;;;2.47;2.03;;;;;;;6.79;100.00;99091.38;2598705;28;20057;-88
2023/09/24 02:29:35;;;;;;;2.85;2.20;;;;;;;6.82;100.00;99085.31;2603550;28;20059;-87
2023/09/24 02:30:53;;;;;;;5.25;2.25;;;;;;;6.97;100.00;99085.25;2610468;28;20060;-87
2023/09/24 02:32:08;;;;;;;5.93;2.30;;;;;;;6.99;100.00;99080.06;2610664;28;20626;-88
2023/09/24 02:33:24;;;;;;;5.82;2.78;;;;;;;6.96;100.00;99077.44;2610529;28;20071;-87
2023/09/24 02:34:39;;;;;;;3.70;2.38;;;;;;;6.92;100.00;99082.66;2610349;28;20045;-87
2023/09/24 02:35:55;;;;;;;5.05;2.75;;;;;;;6.89;100.00;99076.59;2610351;28;20062;-87
2023/09/24 02:37:10;;;;;;;5.55;2.90;;;;;;;7.04;100.00;99080.91;2610422;28;20072;-87
2023/09/24 02:38:26;;;;;;;3.92;2.78;;;;;;;6.99;100.00;99085.25;2610391;28;20045;-87
2023/09/24 02:39:42;;;;;;;3.97;2.90;;;;;;;6.90;100.00;99081.81;2610590;28;20135;-87
2023/09/24 02:40:57;;;;;;;5.13;3.00;;;;;;;6.86;100.00;99081.81;2610678;28;20052;-87
2023/09/24 02:42:12;;;;;;;4.35;2.90;;;;;;;6.84;100.00;99081.81;2610402;28;20487;-87
2023/09/24 02:43:32;;;;;;;8.50;2.75;;;;;;;6.83;100.00;99087.88;2610456;28;20052;-87
2023/09/24 02:44:48;;;;;;;4.28;2.90;;;;;;;6.83;100.00;99093.09;2610452;28;20120;-87
2023/09/24 02:46:05;;;;;;;5.22;2.88;;;;;;;6.85;100.00;99091.38;2610320;28;20490;-88
2023/09/24 02:47:21;;;;;;;5.35;3.05;;;;;;;6.85;100.00;99096.56;2610433;28;20053;-87
2023/09/24 02:48:36;;;;;;;4.88;3.22;;;;;;;6.87;100.00;99093.94;2610458;28;20041;-87
2023/09/24 02:49:52;;;;;;;4.80;3.05;;;;;;;6.89;100.00;99095.69;2610375;28;20048;-87
2023/09/24 02:51:08;;;;;;;4.53;2.78;;;;;;;6.84;100.00;99094.81;2610674;28;20242;-87
2023/09/24 02:52:24;;;;;;;3.72;2.67;;;;;;;6.81;100.00;99094.81;2610077;28;20055;-87
2023/09/24 02:53:41;;;;;;;4.78;2.70;;;;;;;6.87;100.00;99092.22;2610371;28;20045;-87
2023/09/24 02:54:57;;;;;;;4.00;2.55;;;;;;;6.78;100.00;99089.63;2610501;28;20182;-87
2023/09/24 02:56:15;;;;;;;4.25;2.28;;;;;;;6.77;100.00;99088.78;2610058;28;20045;-87
2023/09/24 02:57:31;;;;;;;3.58;2.10;;;;;;;6.74;100.00;99095.72;2610369;28;20107;-87
2023/09/24 02:58:46;;;;;;;3.53;2.50;;;;;;;6.73;100.00;99102.66;2610245;28;20103;-87
2023/09/24 03:00:08;;;;;;;3.80;2.42;;;;;;;6.71;100.00;99100.94;2610091;28;20051;-88
2023/09/24 03:01:24;;;;;;;3.70;2.55;;;;;;;6.69;100.00;99107.84;2610343;28;20357;-88
2023/09/24 03:02:40;;;;;;;5.55;2.75;;;;;;;6.71;100.00;99104.41;2610419;28;20045;-87
2023/09/24 03:03:59;;;;;;;3.78;2.75;;;;;;;6.72;100.00;99111.34;2610135;28;20129;-87
2023/09/24 03:05:24;;;;;;;4.05;2.83;;;;;;;6.73;100.00;99104.41;2610223;28;20072;-87
2023/09/24 03:06:39;;;;;;;4.10;2.25;;;;;;;6.71;100.00;99106.16;2610138;28;20045;-87
2023/09/24 03:07:56;;;;;;;3.55;2.72;;;;;;;6.70;100.00;99107.88;2610214;28;20048;-88
2023/09/24 03:09:12;;;;;;;4.03;2.75;;;;;;;6.67;100.00;99105.28;2609753;28;20049;-87
2023/09/24 03:10:35;;;;;;;3.35;2.45;;;;;;;6.66;100.00;99107.88;2610373;28;20550;-87
2023/09/24 03:11:51;;;;;;;5.20;2.78;;;;;;;6.63;100.00;99112.22;2610221;28;20048;-88
2023/09/24 03:13:07;;;;;;;4.75;2.63;;;;;;;6.61;100.00;99113.06;2610377;28;20053;-88
2023/09/24 03:14:23;;;;;;;4.97;2.40;;;;;;;6.64;100.00;99113.09;2610084;28;20579;-87
2023/09/24 03:15:38;;;;;;;5.20;2.75;;;;;;;6.60;100.00;99114.81;2609292;28;20504;-87
2023/09/24 03:16:54;;;;;;;5.50;2.50;;;;;;;6.56;100.00;99120.88;2610290;28;20048;-87
2023/09/24 03:18:09;;;;;;;3.47;2.63;;;;;;;6.48;100.00;99122.63;2610101;28;20049;-87
2023/09/24 03:19:25;;;;;;;4.95;2.90;;;;;;;6.45;100.00;99120.03;2609971;28;20048;-87
2023/09/24 03:20:43;;;;;;;5.82;2.80;;;;;;;6.36;100.00;99128.72;2610226;28;20045;-87
2023/09/24 03:21:59;;;;;;;3.33;2.70;;;;;;;6.30;100.00;99132.19;2610169;28;20111;-87
2023/09/24 03:23:15;;;;;;;3.72;2.70;;;;;;;6.23;100.00;99133.03;2609873;28;20526;-87
2023/09/24 03:24:31;;;;;;;4.45;2.83;;;;;;;6.21;100.00;99129.56;2610221;28;20080;-87
2023/09/24 03:25:46;;;;;;;13.88;3.28;;;;;;;6.33;100.00;99134.78;2610058;28;20508;-87
2023/09/24 03:27:02;;;;;;;5.03;3.20;;;;;;;6.40;100.00;99129.56;2609938;28;20048;-87
2023/09/24 03:28:17;;;;;;;4.90;2.75;;;;;;;6.42;100.00;99130.41;2603613;28;20053;-87
2023/09/24 03:29:33;;;;;;;3.92;2.90;;;;;;;6.35;100.00;99129.56;2605610;28;20492;-87
2023/09/24 03:30:48;;;;;;;7.13;3.22;;;;;;;6.33;100.00;99139.09;2610041;28;20049;-87
2023/09/24 03:32:04;;;;;;;5.38;3.33;;;;;;;6.35;100.00;99135.63;2610177;28;20048;-87
2023/09/24 03:33:20;;;;;;;5.97;3.35;;;;;;;6.34;100.00;99131.31;2610003;28;20045;-87
2023/09/24 03:34:36;;;;;;;4.53;2.80;;;;;;;6.33;100.00;99132.19;2609999;28;20052;-87
2023/09/24 03:35:51;;;;;;;5.32;3.10;;;;;;;6.34;100.00;99126.09;2609953;28;20045;-87
2023/09/24 03:37:09;;;;;;;5.00;2.60;;;;;;;6.37;100.00;99120.03;2610128;28;20479;-87
2023/09/24 03:38:24;;;;;;;4.70;2.40;;;;;;;6.38;100.00;99120.91;2610405;28;20063;-87
2023/09/24 03:39:40;;;;;;;3.83;2.88;;;;;;;6.38;100.00;99132.19;2598317;28;20049;-87
2023/09/24 03:40:57;;;;;;;3.50;2.55;;;;;;;6.29;100.00;99125.25;2603254;28;20048;-87
2023/09/24 03:42:14;;;;;;;2.72;2.00;;;;;;;6.25;100.00;99128.69;2609932;28;20048;-87
2023/09/24 03:43:32;;;;;;;4.50;2.72;;;;;;;6.30;100.00;99136.50;2609756;28;20524;-87
2023/09/24 03:44:48;;;;;;;3.65;2.40;;;;;;;6.32;100.00;99138.25;2609864;28;20132;-87
2023/09/24 03:46:03;;;;;;;3.72;2.38;;;;;;;6.31;100.00;99139.13;2609972;28;20045;-87
2023/09/24 03:50:27;;;;;;;3.22;2.20;;;;;;;6.28;100.00;99149.50;2589552;28;20188;-87
2023/09/24 03:51:43;;;;;;;3.70;2.00;;;;;;;6.27;100.00;99152.97;2582406;28;20042;-87
2023/09/24 03:52:59;;;;;;;6.20;2.40;;;;;;;6.26;100.00;99155.56;2576579;28;20121;-87
2023/09/24 03:54:15;;;;;;;3.38;2.17;;;;;;;6.26;100.00;99160.78;2583325;28;20640;-88
2023/09/24 03:55:31;;;;;;;4.82;2.13;;;;;;;6.23;100.00;99161.63;2588834;28;20427;-87
2023/09/24 03:56:46;;;;;;;3.00;1.75;;;;;;;6.14;100.00;99161.59;2589483;28;20057;-87
2023/09/24 03:58:05;;;;;;;3.25;2.40;;;;;;;6.01;100.00;99164.22;2589207;28;20049;-87
2023/09/24 03:59:21;;;;;;;3.97;2.15;;;;;;;6.04;100.00;99160.72;2589109;28;20049;-87
2023/09/24 04:00:36;;;;;;;3.15;2.05;;;;;;;6.05;100.00;99168.53;2589075;28;20041;-88
2023/09/24 04:01:52;;;;;;;3.25;1.98;;;;;;;5.99;100.00;99165.88;2589486;28;20050;-87
2023/09/24 04:03:08;;;;;;;2.67;2.35;;;;;;;5.99;100.00;99168.47;2589105;28;20045;-87
2023/09/24 04:04:26;;;;;;;3.55;2.10;;;;;;;5.98;100.00;99171.09;2588917;28;20050;-87
2023/09/24 04:05:41;;;;;;;3.40;2.03;;;;;;;5.96;100.00;99171.06;2588878;28;20069;-88
2023/09/24 04:06:57;;;;;;;4.28;2.33;;;;;;;6.07;100.00;99178.94;2589079;28;20045;-87
2023/09/24 04:08:12;;;;;;;4.25;2.10;;;;;;;6.17;100.00;99172.88;2589174;28;20057;-87
2023/09/24 04:09:32;;;;;;;3.92;2.25;;;;;;;6.12;100.00;99172.03;2588595;28;20050;-87
2023/09/24 04:10:49;;;;;;;3.53;2.30;;;;;;;6.08;100.00;99159.91;2589023;28;20516;-87
2023/09/24 04:12:05;;;;;;;2.92;2.10;;;;;;;6.11;100.00;99164.22;2589227;28;20200;-87
2023/09/24 04:13:21;;;;;;;3.33;2.35;;;;;;;6.06;100.00;99167.69;2588773;28;20136;-87
2023/09/24 04:14:36;;;;;;;2.97;2.10;;;;;;;6.08;100.00;99162.50;2589099;28;20085;-87
2023/09/24 04:15:52;;;;;;;4.53;2.50;;;;;;;6.15;100.00;99163.38;2588973;28;20081;-87
2023/09/24 04:17:09;;;;;;;3.65;2.50;;;;;;;6.31;100.00;99164.25;2588927;28;20136;-86
2023/09/24 04:18:24;;;;;;;4.07;2.53;;;;;;;6.36;100.00;99160.78;2589033;28;20060;-86
2023/09/24 04:19:40;;;;;;;4.28;2.40;;;;;;;6.24;100.00;99165.97;2589247;28;20045;-86
2023/09/24 04:20:55;;;;;;;7.80;2.60;;;;;;;6.21;100.00;99165.97;2588915;28;20042;-87
2023/09/24 04:22:11;;;;;;;11.98;3.17;;;;;;;6.17;100.00;99175.50;2579514;28;20054;-87
2023/09/24 04:23:27;;;;;;;3.67;2.65;;;;;;;6.14;100.00;99175.50;2581433;28;20101;-87
2023/09/24 04:24:43;;;;;;;6.68;2.95;;;;;;;6.11;100.00;99179.81;2584938;28;20132;-87
2023/09/24 04:25:58;;;;;;;11.55;3.10;;;;;;;6.04;100.00;99182.41;2589827;28;20457;-87
2023/09/24 04:27:15;;;;;;;5.72;2.50;;;;;;;5.99;100.00;99183.22;2587620;28;20060;-87
2023/09/24 04:28:30;;;;;;;6.68;2.88;;;;;;;5.89;100.00;99190.97;2580979;28;20056;-87
2023/09/24 04:29:46;;;;;;;5.80;3.03;;;;;;;5.83;100.00;99192.69;2583409;28;20061;-87
2023/09/24 04:31:01;;;;;;;7.68;2.85;;;;;;;5.83;100.00;99190.09;2583084;28;20501;-87
2023/09/24 04:32:17;;;;;;;8.23;2.70;;;;;;;5.87;100.00;99190.13;2585801;28;20132;-87
2023/09/24 04:33:34;;;;;;;11.20;2.75;;;;;;;5.80;100.00;99196.16;2589010;28;20410;-86
2023/09/24 04:34:50;;;;;;;4.93;2.63;;;;;;;5.73;100.00;99191.81;2588705;28;21039;-87
2023/09/24 04:36:05;;;;;;;5.75;2.90;;;;;;;5.67;100.00;99197.00;2582284;28;20057;-87
2023/09/24 04:37:21;;;;;;;5.20;2.83;;;;;;;5.72;100.00;99195.25;2585327;28;20053;-87
2023/09/24 04:38:37;;;;;;;5.22;2.90;;;;;;;5.70;100.00;99205.63;2588794;28;20107;-87
2023/09/24 04:39:52;;;;;;;5.05;3.30;;;;;;;5.79;100.00;99202.19;2588700;28;20049;-88
2023/09/24 04:41:08;;;;;;;4.43;2.72;;;;;;;5.82;100.00;99207.44;2588739;28;20056;-87
2023/09/24 04:42:24;;;;;;;3.08;2.30;;;;;;;5.82;100.00;99209.16;2588618;28;20048;-87
2023/09/24 04:43:41;;;;;;;3.22;2.13;;;;;;;5.90;100.00;99199.66;2588552;28;20053;-87
2023/09/24 04:44:57;;;;;;;4.13;2.40;;;;;;;5.84;100.00;99202.22;2588719;28;20095;-87
2023/09/24 04:46:14;;;;;;;3.80;2.08;;;;;;;5.71;100.00;99199.56;2588592;28;20050;-86
2023/09/24 04:47:29;;;;;;;2.63;2.10;;;;;;;5.65;100.00;99191.78;2589103;28;20121;-86
2023/09/24 04:48:45;;;;;;;3.10;2.10;;;;;;;5.62;100.00;99189.16;2601446;28;20049;-87
2023/09/24 04:50:02;;;;;;;3.90;2.72;;;;;;;5.63;100.00;99196.09;2600099;28;20647;-87
2023/09/24 04:51:17;;;;;;;3.85;2.22;;;;;;;5.70;100.00;99200.44;2601722;28;20084;-87
2023/09/24 04:52:33;;;;;;;4.07;2.30;;;;;;;5.72;100.00;99206.50;2602061;28;20069;-87
2023/09/24 04:53:49;;;;;;;3.60;2.10;;;;;;;5.78;100.00;99208.25;2599713;28;20080;-87
2023/09/24 04:55:05;;;;;;;3.35;2.35;;;;;;;5.73;100.00;99210.88;2601649;28;20113;-87
2023/09/24 04:56:20;;;;;;;4.45;2.67;;;;;;;5.79;100.00;99212.59;2601290;28;20049;-87
2023/09/24 04:57:36;;;;;;;6.30;2.60;;;;;;;5.90;100.00;99223.91;2601134;28;20133;-86
2023/09/24 04:58:51;;;;;;;5.60;2.25;;;;;;;5.96;100.00;99214.41;2599823;28;20045;-86
2023/09/24 05:00:08;;;;;;;13.95;2.92;;;;;;;6.15;100.00;99212.78;2599904;28;20404;-87
2023/09/24 05:01:23;;;;;;;14.48;3.13;;;;;;;6.18;100.00;99217.97;2602950;28;20049;-87
2023/09/24 05:02:39;;;;;;;9.00;2.72;;;;;;;6.27;100.00;99217.13;2602108;28;20065;-86
2023/09/24 05:03:54;;;;;;;9.57;3.17;;;;;;;6.25;100.00;99213.66;2599807;28;20523;-86
2023/09/24 05:05:10;;;;;;;12.60;3.03;;;;;;;6.22;100.00;99219.72;2599811;28;20045;-86
2023/09/24 05:06:27;;;;;;;12.43;3.55;;;;;;;6.25;100.00;99222.31;2599925;28;20081;-86
2023/09/24 05:07:43;;;;;;;12.65;2.90;;;;;;;6.17;100.00;99226.63;2602788;28;20041;-86
2023/09/24 05:08:58;;;;;;;10.45;2.97;;;;;;;6.12;100.00;99225.75;2591162;28;20061;-87
2023/09/24 05:10:14;;;;;;;15.27;4.32;;;;;;;6.16;100.00;99240.50;2597308;28;20041;-87
2023/09/24 05:11:29;;;;;;;4.03;2.80;;;;;;;6.17;100.00;99232.69;2597601;28;20049;-87
2023/09/24 05:12:45;;;;;;;16.02;3.75;;;;;;;6.30;100.00;99238.81;2601961;28;20480;-87
2023/09/24 05:14:01;;;;;;;20.23;3.22;;;;;;;6.32;100.00;99241.38;2608922;28;20053;-87
2023/09/24 05:15:16;;;;;;;19.20;3.42;;;;;;;6.30;100.00;99241.41;2609026;28;20059;-86
2023/09/24 05:16:32;;;;;;;8.43;3.40;;;;;;;6.27;100.00;99240.53;2608925;28;20471;-87
2023/09/24 05:17:47;;;;;;;4.60;2.50;;;;;;;6.27;100.00;99237.94;2608833;28;20100;-86
2023/09/24 05:19:05;;;;;;;8.05;2.95;;;;;;;6.29;100.00;99237.06;2608955;28;20408;-87
2023/09/24 05:20:20;;;;;;;6.55;2.70;;;;;;;6.28;100.00;99245.72;2608997;28;20048;-87
2023/09/24 05:21:36;;;;;;;10.32;3.00;;;;;;;6.31;100.00;99239.66;2608822;28;20068;-87
2023/09/24 05:22:51;;;;;;;6.75;2.90;;;;;;;6.32;100.00;99242.28;2608952;28;20400;-87
2023/09/24 05:24:08;;;;;;;6.35;2.60;;;;;;;6.31;100.00;99243.13;2597203;28;20045;-87
2023/09/24 05:25:23;;;;;;;18.85;3.22;;;;;;;6.34;100.00;99245.75;2602058;28;20041;-86
2023/09/24 05:26:40;;;;;;;9.65;2.78;;;;;;;6.34;100.00;99248.34;2597220;28;20069;-87
2023/09/24 05:27:55;;;;;;;8.93;2.92;;;;;;;6.39;100.00;99252.69;2599699;28;20094;-87
2023/09/24 05:29:11;;;;;;;11.02;2.70;;;;;;;6.43;100.00;99252.69;2607939;28;20095;-86
2023/09/24 05:30:27;;;;;;;6.28;3.08;;;;;;;6.41;100.00;99256.16;2608740;28;20051;-86
2023/09/24 05:31:43;;;;;;;7.85;2.72;;;;;;;6.24;100.00;99262.19;2608288;28;20041;-86
2023/09/24 05:32:58;;;;;;;5.70;2.63;;;;;;;6.08;100.00;99258.69;2608741;28;20393;-86
2023/09/24 05:34:14;;;;;;;5.20;2.83;;;;;;;6.06;100.00;99260.38;2608856;28;20049;-86
2023/09/24 05:35:31;;;;;;;5.57;2.78;;;;;;;6.32;100.00;99262.19;2608577;28;20120;-86
2023/09/24 05:36:50;;;;;;;5.55;2.72;;;;;;;6.30;100.00;99262.22;2608409;28;20059;-87
2023/09/24 05:38:05;;;;;;;8.38;3.00;;;;;;;6.29;100.00;99267.41;2608155;28;20055;-87
2023/09/24 05:39:21;;;;;;;4.68;3.38;;;;;;;6.35;100.00;99273.47;2608332;28;20047;-87
2023/09/24 05:40:39;;;;;;;8.07;3.20;;;;;;;6.38;100.00;99272.63;2608669;28;20587;-87
2023/09/24 05:41:55;;;;;;;5.18;3.13;;;;;;;6.49;100.00;99273.50;2608264;28;20471;-87
2023/09/24 05:43:11;;;;;;;8.63;3.38;;;;;;;6.56;100.00;99271.78;2608585;28;20047;-87
2023/09/24 05:44:29;;;;;;;5.60;2.80;;;;;;;6.60;100.00;99268.34;2608617;28;20041;-87
2023/09/24 05:45:49;;;;;;;5.50;2.53;;;;;;;6.48;100.00;99270.91;2608809;28;20053;-88
2023/09/24 05:47:07;;;;;;;5.78;2.70;;;;;;;6.42;100.00;99270.88;2608571;28;20186;-89
2023/09/24 05:48:23;;;;;;;6.43;3.10;;;;;;;6.47;100.00;99274.38;2608142;28;20119;-87
2023/09/24 05:49:38;;;;;;;5.80;3.03;;;;;;;6.48;100.00;99271.75;2608776;28;20057;-87
2023/09/24 05:50:54;;;;;;;4.40;2.53;;;;;;;6.55;100.00;99269.19;2597000;28;20050;-87
2023/09/24 05:52:09;;;;;;;4.60;3.08;;;;;;;6.56;100.00;99269.19;2601713;28;20511;-87
2023/09/24 05:53:25;;;;;;;3.95;2.78;;;;;;;6.58;100.00;99271.78;2608841;28;20052;-87
2023/09/24 05:54:41;;;;;;;5.18;2.90;;;;;;;6.62;100.00;99266.59;2608649;28;20045;-87
2023/09/24 05:55:56;;;;;;;3.65;2.78;;;;;;;6.63;100.00;99273.53;2608674;28;20041;-87
2023/09/24 05:57:12;;;;;;;5.80;3.20;;;;;;;6.67;100.00;99273.53;2597301;28;20045;-88
2023/09/24 05:58:28;;;;;;;4.88;3.33;;;;;;;6.76;100.00;99271.81;2601362;28;20532;-89
2023/09/24 05:59:43;;;;;;;6.78;3.65;;;;;;;6.86;100.00;99272.72;2608581;28;20076;-88
2023/09/24 06:00:59;;;;;;;5.28;3.50;;;;;;;7.03;100.00;99267.47;2608471;28;20597;-88
2023/09/24 06:02:14;;;;;;;6.03;3.83;;;;;;;7.09;100.00;99269.22;2597111;28;20119;-87
2023/09/24 06:03:30;;;;;;;4.95;3.60;;;;;;;7.16;100.00;99276.16;2601700;28;20473;-88